UAL314 KMSN-KDEN
Flight info
| Callsign | UAL314 |
|---|---|
| Flight time | 2h 0m |
| Altitude | 34000 |
| Route | MCW SAUGI PORDR AALLE4 |
| Aircraft | B739/M-SDE2E3FGHIRWXY/LB1 |
Departure
| Time | 2026-05-07 21:57 |
|---|---|
| Airport | Dane County Regional Truax Field (KMSN) |
Arrival
| Time | 2026-05-07 23:57 |
|---|---|
| Airport | Denver International Airport (KDEN) |
| Time | Latitude | Longitude | Altitude | Speed | Heading |
|---|---|---|---|---|---|
| 2026-05-07 21:26 | 43.13568 | -89.34491 | 865 ft | 0 kts | 273° |
| 2026-05-07 21:48 | 43.13567 | -89.34472 | 849 ft | 2 kts | 273° |
| 2026-05-07 21:48 | 43.13567 | -89.34450 | 854 ft | 2 kts | 269° |
| 2026-05-07 21:48 | 43.13568 | -89.34427 | 849 ft | 2 kts | 236° |
| 2026-05-07 21:49 | 43.13578 | -89.34420 | 854 ft | 1 kts | 181° |
| 2026-05-07 21:51 | 43.13577 | -89.34420 | 854 ft | 1 kts | 182° |
| 2026-05-07 21:51 | 43.13563 | -89.34416 | 853 ft | 3 kts | 159° |
| 2026-05-07 21:52 | 43.13547 | -89.34379 | 853 ft | 7 kts | 102° |
| 2026-05-07 21:52 | 43.13515 | -89.34323 | 861 ft | 9 kts | 162° |
| 2026-05-07 21:52 | 43.13452 | -89.34328 | 860 ft | 9 kts | 194° |
| 2026-05-07 21:52 | 43.13393 | -89.34362 | 855 ft | 10 kts | 205° |
| 2026-05-07 21:53 | 43.13329 | -89.34392 | 866 ft | 10 kts | 192° |
| 2026-05-07 21:53 | 43.13262 | -89.34407 | 869 ft | 10 kts | 187° |
| 2026-05-07 21:53 | 43.13196 | -89.34419 | 872 ft | 9 kts | 187° |
| 2026-05-07 21:53 | 43.13131 | -89.34430 | 873 ft | 10 kts | 187° |
| 2026-05-07 21:54 | 43.13060 | -89.34443 | 872 ft | 11 kts | 187° |
| 2026-05-07 21:54 | 43.12976 | -89.34450 | 872 ft | 13 kts | 182° |
| 2026-05-07 21:54 | 43.12885 | -89.34455 | 874 ft | 13 kts | 182° |
| 2026-05-07 21:54 | 43.12796 | -89.34459 | 874 ft | 13 kts | 181° |
| 2026-05-07 21:55 | 43.12710 | -89.34461 | 872 ft | 13 kts | 181° |
| 2026-05-07 21:55 | 43.12616 | -89.34464 | 869 ft | 14 kts | 183° |
| 2026-05-07 21:55 | 43.12524 | -89.34470 | 868 ft | 13 kts | 178° |
| 2026-05-07 21:55 | 43.12463 | -89.34396 | 869 ft | 13 kts | 97° |
| 2026-05-07 21:56 | 43.12459 | -89.34277 | 867 ft | 12 kts | 92° |
| 2026-05-07 21:56 | 43.12515 | -89.34214 | 869 ft | 12 kts | 5° |
| 2026-05-07 21:56 | 43.12625 | -89.34208 | 872 ft | 34 kts | 1° |
| 2026-05-07 21:56 | 43.13105 | -89.34188 | 871 ft | 103 kts | 2° |
| 2026-05-07 21:57 | 43.14014 | -89.34146 | 872 ft | 156 kts | 1° |
| 2026-05-07 21:57 | 43.15145 | -89.34070 | 1273 ft | 169 kts | 4° |
| 2026-05-07 21:57 | 43.16336 | -89.33945 | 2013 ft | 172 kts | 1° |
| 2026-05-07 21:57 | 43.17539 | -89.33766 | 2663 ft | 180 kts | 1° |
| 2026-05-07 21:58 | 43.18843 | -89.33563 | 3141 ft | 199 kts | 1° |
| 2026-05-07 21:58 | 43.20298 | -89.33376 | 3448 ft | 222 kts | 0° |
| 2026-05-07 21:58 | 43.21899 | -89.33171 | 3840 ft | 240 kts | 1° |
| 2026-05-07 21:58 | 43.23642 | -89.32947 | 4285 ft | 259 kts | 1° |
| 2026-05-07 21:59 | 43.25435 | -89.32963 | 5168 ft | 256 kts | 340° |
| 2026-05-07 21:59 | 43.26906 | -89.34229 | 5987 ft | 252 kts | 306° |
| 2026-05-07 21:59 | 43.27561 | -89.36419 | 6792 ft | 252 kts | 277° |
| 2026-05-07 21:59 | 43.27673 | -89.38796 | 7559 ft | 255 kts | 270° |
| 2026-05-07 22:00 | 43.27619 | -89.41245 | 8351 ft | 258 kts | 268° |
| 2026-05-07 22:00 | 43.27524 | -89.43715 | 9164 ft | 260 kts | 267° |
| 2026-05-07 22:00 | 43.27424 | -89.46204 | 9973 ft | 261 kts | 266° |
| 2026-05-07 22:00 | 43.27325 | -89.48727 | 10453 ft | 275 kts | 267° |
| 2026-05-07 22:01 | 43.27225 | -89.51452 | 10621 ft | 297 kts | 267° |
| 2026-05-07 22:01 | 43.27121 | -89.54374 | 10888 ft | 314 kts | 268° |
| 2026-05-07 22:01 | 43.27019 | -89.57404 | 11469 ft | 320 kts | 268° |
| 2026-05-07 22:01 | 43.26918 | -89.60465 | 12211 ft | 321 kts | 269° |
| 2026-05-07 22:02 | 43.26819 | -89.63531 | 12977 ft | 322 kts | 269° |
| 2026-05-07 22:02 | 43.26722 | -89.66564 | 13704 ft | 324 kts | 269° |
| 2026-05-07 22:02 | 43.26623 | -89.69669 | 14315 ft | 327 kts | 269° |
| 2026-05-07 22:02 | 43.26524 | -89.72789 | 14955 ft | 329 kts | 270° |
| 2026-05-07 22:03 | 43.26424 | -89.75932 | 15599 ft | 331 kts | 270° |
| 2026-05-07 22:03 | 43.26323 | -89.79092 | 16227 ft | 333 kts | 270° |
| 2026-05-07 22:03 | 43.26219 | -89.82279 | 16839 ft | 335 kts | 270° |
| 2026-05-07 22:03 | 43.26115 | -89.85485 | 17456 ft | 337 kts | 270° |
| 2026-05-07 22:04 | 43.26009 | -89.88711 | 18051 ft | 340 kts | 270° |
| 2026-05-07 22:04 | 43.25902 | -89.91967 | 18608 ft | 343 kts | 270° |
| 2026-05-07 22:04 | 43.25793 | -89.95241 | 19167 ft | 345 kts | 270° |
| 2026-05-07 22:04 | 43.25684 | -89.98492 | 19704 ft | 347 kts | 270° |
| 2026-05-07 22:05 | 43.25571 | -90.01812 | 20265 ft | 349 kts | 271° |
| 2026-05-07 22:05 | 43.25457 | -90.05152 | 20811 ft | 352 kts | 271° |
| 2026-05-07 22:05 | 43.25341 | -90.08525 | 21304 ft | 356 kts | 271° |
| 2026-05-07 22:05 | 43.25223 | -90.11934 | 21801 ft | 359 kts | 271° |
| 2026-05-07 22:06 | 43.25102 | -90.15365 | 22341 ft | 361 kts | 271° |
| 2026-05-07 22:06 | 43.24980 | -90.18814 | 22857 ft | 364 kts | 271° |
| 2026-05-07 22:06 | 43.24856 | -90.22294 | 23342 ft | 367 kts | 271° |
| 2026-05-07 22:06 | 43.24731 | -90.25760 | 23754 ft | 370 kts | 271° |
| 2026-05-07 22:07 | 43.24603 | -90.29291 | 24200 ft | 371 kts | 271° |
| 2026-05-07 22:07 | 43.24472 | -90.32833 | 24643 ft | 373 kts | 271° |
| 2026-05-07 22:07 | 43.24341 | -90.36383 | 25074 ft | 374 kts | 271° |
| 2026-05-07 22:07 | 43.24208 | -90.39958 | 25483 ft | 376 kts | 271° |
| 2026-05-07 22:08 | 43.24073 | -90.43543 | 25873 ft | 378 kts | 271° |
| 2026-05-07 22:08 | 43.23936 | -90.47150 | 26291 ft | 379 kts | 271° |
| 2026-05-07 22:08 | 43.23798 | -90.50765 | 26693 ft | 381 kts | 271° |
| 2026-05-07 22:08 | 43.23658 | -90.54401 | 27076 ft | 383 kts | 271° |
| 2026-05-07 22:09 | 43.23516 | -90.58054 | 27456 ft | 385 kts | 271° |
| 2026-05-07 22:09 | 43.23375 | -90.61670 | 27824 ft | 386 kts | 271° |
| 2026-05-07 22:09 | 43.23229 | -90.65359 | 28239 ft | 388 kts | 271° |
| 2026-05-07 22:09 | 43.23081 | -90.69057 | 28625 ft | 389 kts | 271° |
| 2026-05-07 22:10 | 43.22932 | -90.72769 | 28996 ft | 391 kts | 271° |
| 2026-05-07 22:10 | 43.22782 | -90.76481 | 29460 ft | 390 kts | 271° |
| 2026-05-07 22:10 | 43.22630 | -90.80178 | 30020 ft | 386 kts | 272° |
| 2026-05-07 22:10 | 43.22478 | -90.83838 | 30480 ft | 383 kts | 272° |
| 2026-05-07 22:11 | 43.22326 | -90.87487 | 30798 ft | 384 kts | 271° |
| 2026-05-07 22:11 | 43.22176 | -90.91095 | 31094 ft | 384 kts | 271° |
| 2026-05-07 22:11 | 43.22023 | -90.94749 | 31438 ft | 384 kts | 271° |
| 2026-05-07 22:11 | 43.21868 | -90.98400 | 31794 ft | 383 kts | 271° |
| 2026-05-07 22:12 | 43.21713 | -91.02041 | 32129 ft | 382 kts | 271° |
| 2026-05-07 22:12 | 43.21556 | -91.05676 | 32453 ft | 382 kts | 271° |
| 2026-05-07 22:12 | 43.21399 | -91.09310 | 32768 ft | 382 kts | 270° |
| 2026-05-07 22:12 | 43.21240 | -91.12945 | 33085 ft | 381 kts | 270° |
| 2026-05-07 22:13 | 43.21081 | -91.16575 | 33304 ft | 383 kts | 270° |
| 2026-05-07 22:13 | 43.20922 | -91.20182 | 33502 ft | 385 kts | 270° |
| 2026-05-07 22:13 | 43.20759 | -91.23842 | 33740 ft | 385 kts | 270° |
| 2026-05-07 22:13 | 43.20594 | -91.27512 | 33912 ft | 387 kts | 270° |
| 2026-05-07 22:14 | 43.20260 | -91.34864 | 33897 ft | 385 kts | 270° |
| 2026-05-07 22:14 | 43.19923 | -91.42155 | 33901 ft | 382 kts | 270° |
| 2026-05-07 22:15 | 43.19585 | -91.49402 | 33900 ft | 380 kts | 270° |
| 2026-05-07 22:15 | 43.19245 | -91.56571 | 33895 ft | 379 kts | 270° |
| 2026-05-07 22:16 | 43.18900 | -91.63779 | 33891 ft | 379 kts | 269° |
| 2026-05-07 22:16 | 43.18550 | -91.71000 | 33888 ft | 380 kts | 269° |
| 2026-05-07 22:17 | 43.18194 | -91.78241 | 33887 ft | 381 kts | 269° |
| 2026-05-07 22:17 | 43.17832 | -91.85502 | 33892 ft | 383 kts | 269° |
| 2026-05-07 22:18 | 43.17280 | -91.96392 | 33898 ft | 385 kts | 269° |
| 2026-05-07 22:19 | 43.16903 | -92.03719 | 33907 ft | 386 kts | 269° |
| 2026-05-07 22:19 | 43.16521 | -92.11054 | 33909 ft | 386 kts | 269° |
| 2026-05-07 22:20 | 43.16134 | -92.18386 | 33915 ft | 386 kts | 269° |
| 2026-05-07 22:20 | 43.15745 | -92.25671 | 33910 ft | 386 kts | 269° |
| 2026-05-07 22:21 | 43.15349 | -92.33002 | 33907 ft | 386 kts | 269° |
| 2026-05-07 22:21 | 43.14948 | -92.40330 | 33899 ft | 386 kts | 269° |
| 2026-05-07 22:22 | 43.14543 | -92.47644 | 33900 ft | 385 kts | 269° |
| 2026-05-07 22:22 | 43.14134 | -92.54958 | 33893 ft | 385 kts | 269° |
| 2026-05-07 22:23 | 43.13723 | -92.62213 | 33901 ft | 385 kts | 269° |
| 2026-05-07 22:23 | 43.13305 | -92.69522 | 33894 ft | 385 kts | 269° |
| 2026-05-07 22:24 | 43.12882 | -92.76828 | 33900 ft | 385 kts | 269° |
| 2026-05-07 22:24 | 43.12454 | -92.84142 | 33896 ft | 386 kts | 269° |
| 2026-05-07 22:25 | 43.12021 | -92.91466 | 33915 ft | 386 kts | 268° |
| 2026-05-07 22:25 | 43.11585 | -92.98747 | 33893 ft | 387 kts | 268° |
| 2026-05-07 22:26 | 43.11141 | -93.06087 | 33902 ft | 387 kts | 268° |
| 2026-05-07 22:26 | 43.10693 | -93.13428 | 33900 ft | 388 kts | 268° |
| 2026-05-07 22:27 | 43.10239 | -93.20784 | 33903 ft | 388 kts | 268° |
| 2026-05-07 22:27 | 43.09784 | -93.28100 | 33890 ft | 389 kts | 268° |
| 2026-05-07 22:28 | 43.09027 | -93.35434 | 33899 ft | 393 kts | 258° |
| 2026-05-07 22:28 | 43.07514 | -93.42622 | 33895 ft | 394 kts | 258° |
| 2026-05-07 22:29 | 43.05993 | -93.49816 | 33898 ft | 394 kts | 258° |
| 2026-05-07 22:29 | 43.04479 | -93.57016 | 33906 ft | 394 kts | 258° |
| 2026-05-07 22:30 | 43.02980 | -93.64159 | 33914 ft | 393 kts | 258° |
| 2026-05-07 22:30 | 43.01471 | -93.71337 | 33908 ft | 393 kts | 258° |
| 2026-05-07 22:31 | 42.99957 | -93.78519 | 33915 ft | 393 kts | 258° |
| 2026-05-07 22:31 | 42.98441 | -93.85686 | 33915 ft | 393 kts | 258° |
| 2026-05-07 22:32 | 42.96930 | -93.92801 | 33918 ft | 392 kts | 258° |
| 2026-05-07 22:32 | 42.95408 | -93.99943 | 33904 ft | 392 kts | 257° |
| 2026-05-07 22:33 | 42.93884 | -94.07076 | 33910 ft | 391 kts | 257° |
| 2026-05-07 22:33 | 42.92355 | -94.14202 | 33902 ft | 391 kts | 257° |
| 2026-05-07 22:34 | 42.90824 | -94.21317 | 33910 ft | 391 kts | 257° |
| 2026-05-07 22:34 | 42.89298 | -94.28383 | 33903 ft | 391 kts | 257° |
| 2026-05-07 22:35 | 42.87756 | -94.35504 | 33916 ft | 391 kts | 257° |
| 2026-05-07 22:35 | 42.86208 | -94.42623 | 33914 ft | 392 kts | 257° |
| 2026-05-07 22:36 | 42.84919 | -94.48536 | 33926 ft | 392 kts | 257° |
| 2026-05-07 22:36 | 42.83360 | -94.55666 | 33925 ft | 393 kts | 257° |
| 2026-05-07 22:37 | 42.81538 | -94.63962 | 33934 ft | 393 kts | 257° |
| 2026-05-07 22:37 | 42.80231 | -94.69896 | 33927 ft | 394 kts | 257° |
| 2026-05-07 22:38 | 42.78655 | -94.77033 | 33930 ft | 394 kts | 257° |
| 2026-05-07 22:38 | 42.77071 | -94.84177 | 33921 ft | 395 kts | 256° |
| 2026-05-07 22:39 | 42.75222 | -94.92488 | 33916 ft | 395 kts | 256° |
| 2026-05-07 22:39 | 42.73896 | -94.98431 | 33909 ft | 395 kts | 256° |
| 2026-05-07 22:40 | 42.72296 | -95.05576 | 33911 ft | 395 kts | 256° |
| 2026-05-07 22:40 | 42.70692 | -95.12721 | 33897 ft | 395 kts | 256° |
| 2026-05-07 22:41 | 42.68820 | -95.21023 | 33903 ft | 395 kts | 256° |
| 2026-05-07 22:41 | 42.67478 | -95.26959 | 33895 ft | 395 kts | 256° |
| 2026-05-07 22:42 | 42.65859 | -95.34096 | 33906 ft | 395 kts | 256° |
| 2026-05-07 22:42 | 42.64236 | -95.41231 | 33900 ft | 396 kts | 256° |
| 2026-05-07 22:43 | 42.62606 | -95.48373 | 33897 ft | 396 kts | 256° |
| 2026-05-07 22:43 | 42.60972 | -95.55505 | 33891 ft | 396 kts | 256° |
| 2026-05-07 22:44 | 42.59344 | -95.62590 | 33898 ft | 396 kts | 255° |
| 2026-05-07 22:44 | 42.57700 | -95.69723 | 33891 ft | 396 kts | 255° |
| 2026-05-07 22:45 | 42.56050 | -95.76858 | 33897 ft | 396 kts | 255° |
| 2026-05-07 22:45 | 42.54396 | -95.83988 | 33894 ft | 397 kts | 255° |
| 2026-05-07 22:46 | 42.52736 | -95.91122 | 33903 ft | 397 kts | 255° |
| 2026-05-07 22:46 | 42.51081 | -95.98211 | 33893 ft | 397 kts | 255° |
| 2026-05-07 22:47 | 42.49408 | -96.05352 | 33904 ft | 398 kts | 255° |
| 2026-05-07 22:47 | 42.47732 | -96.12487 | 33889 ft | 398 kts | 255° |
| 2026-05-07 22:48 | 42.46049 | -96.19628 | 33898 ft | 398 kts | 255° |
| 2026-05-07 22:48 | 42.44360 | -96.26769 | 33889 ft | 398 kts | 254° |
| 2026-05-07 22:49 | 42.42678 | -96.33862 | 33894 ft | 398 kts | 254° |
| 2026-05-07 22:49 | 42.40980 | -96.40996 | 33884 ft | 398 kts | 254° |
| 2026-05-07 22:50 | 42.39278 | -96.48127 | 33899 ft | 398 kts | 254° |
| 2026-05-07 22:50 | 42.37570 | -96.55259 | 33888 ft | 399 kts | 254° |
| 2026-05-07 22:51 | 42.35867 | -96.62351 | 33901 ft | 399 kts | 254° |
| 2026-05-07 22:51 | 42.34150 | -96.69478 | 33897 ft | 399 kts | 254° |
| 2026-05-07 22:52 | 42.32423 | -96.76620 | 33897 ft | 400 kts | 254° |
| 2026-05-07 22:52 | 42.30693 | -96.83757 | 33887 ft | 400 kts | 254° |
| 2026-05-07 22:53 | 42.28955 | -96.90904 | 33894 ft | 400 kts | 254° |
| 2026-05-07 22:53 | 42.27224 | -96.98000 | 33889 ft | 401 kts | 254° |
| 2026-05-07 22:54 | 42.25476 | -97.05142 | 33894 ft | 401 kts | 254° |
| 2026-05-07 22:54 | 42.23722 | -97.12288 | 33886 ft | 401 kts | 253° |
| 2026-05-07 22:55 | 42.21961 | -97.19439 | 33897 ft | 402 kts | 253° |
| 2026-05-07 22:55 | 42.20206 | -97.26548 | 33893 ft | 402 kts | 253° |
| 2026-05-07 22:56 | 42.18435 | -97.33696 | 33903 ft | 402 kts | 253° |
| 2026-05-07 22:56 | 42.16656 | -97.40856 | 33891 ft | 403 kts | 253° |
| 2026-05-07 22:57 | 42.14871 | -97.48014 | 33895 ft | 403 kts | 253° |
| 2026-05-07 22:57 | 42.13082 | -97.55170 | 33894 ft | 403 kts | 253° |
| 2026-05-07 22:58 | 42.11300 | -97.62279 | 33899 ft | 403 kts | 253° |
| 2026-05-07 22:58 | 42.09498 | -97.69440 | 33891 ft | 404 kts | 253° |
| 2026-05-07 22:59 | 42.07691 | -97.76602 | 33904 ft | 404 kts | 253° |
| 2026-05-07 22:59 | 42.05881 | -97.83755 | 33894 ft | 404 kts | 253° |
| 2026-05-07 23:00 | 42.04063 | -97.90918 | 33908 ft | 404 kts | 253° |
| 2026-05-07 23:00 | 42.02253 | -97.98026 | 33897 ft | 405 kts | 253° |
| 2026-05-07 23:01 | 42.00427 | -98.05178 | 33899 ft | 405 kts | 253° |
| 2026-05-07 23:01 | 41.98593 | -98.12339 | 33902 ft | 406 kts | 253° |
| 2026-05-07 23:02 | 41.96749 | -98.19520 | 33895 ft | 407 kts | 253° |
| 2026-05-07 23:02 | 41.94911 | -98.26655 | 33897 ft | 407 kts | 253° |
| 2026-05-07 23:03 | 41.93055 | -98.33841 | 33889 ft | 408 kts | 253° |
| 2026-05-07 23:03 | 41.91191 | -98.41035 | 33897 ft | 408 kts | 253° |
| 2026-05-07 23:04 | 41.89478 | -98.48286 | 33896 ft | 407 kts | 257° |
| 2026-05-07 23:04 | 41.88049 | -98.55582 | 33897 ft | 407 kts | 257° |
| 2026-05-07 23:05 | 41.86627 | -98.62944 | 33887 ft | 408 kts | 257° |
| 2026-05-07 23:05 | 41.85181 | -98.70306 | 33889 ft | 408 kts | 257° |
| 2026-05-07 23:06 | 41.83717 | -98.77674 | 33877 ft | 409 kts | 257° |
| 2026-05-07 23:06 | 41.82243 | -98.85040 | 33880 ft | 409 kts | 257° |
| 2026-05-07 23:07 | 41.80772 | -98.92361 | 33869 ft | 410 kts | 257° |
| 2026-05-07 23:07 | 41.79284 | -98.99735 | 33880 ft | 410 kts | 257° |
| 2026-05-07 23:08 | 41.77791 | -99.07117 | 33873 ft | 411 kts | 257° |
| 2026-05-07 23:08 | 41.76291 | -99.14500 | 33878 ft | 411 kts | 257° |
| 2026-05-07 23:09 | 41.74794 | -99.21847 | 33872 ft | 412 kts | 257° |
| 2026-05-07 23:09 | 41.73281 | -99.29242 | 33875 ft | 412 kts | 257° |
| 2026-05-07 23:10 | 41.71761 | -99.36645 | 33870 ft | 413 kts | 257° |
| 2026-05-07 23:10 | 41.70234 | -99.44056 | 33870 ft | 413 kts | 257° |
| 2026-05-07 23:11 | 41.68711 | -99.51423 | 33864 ft | 414 kts | 257° |
| 2026-05-07 23:11 | 41.67172 | -99.58836 | 33870 ft | 414 kts | 257° |
| 2026-05-07 23:12 | 41.65626 | -99.66258 | 33864 ft | 414 kts | 257° |
| 2026-05-07 23:12 | 41.64075 | -99.73682 | 33867 ft | 415 kts | 257° |
| 2026-05-07 23:13 | 41.62526 | -99.81064 | 33861 ft | 415 kts | 257° |
| 2026-05-07 23:13 | 41.60961 | -99.88500 | 33863 ft | 416 kts | 258° |
| 2026-05-07 23:14 | 41.59387 | -99.95954 | 33861 ft | 417 kts | 258° |
| 2026-05-07 23:14 | 41.57806 | -100.03408 | 33870 ft | 418 kts | 258° |
| 2026-05-07 23:15 | 41.56229 | -100.10825 | 33852 ft | 419 kts | 258° |
| 2026-05-07 23:15 | 41.54632 | -100.18304 | 33858 ft | 419 kts | 258° |
| 2026-05-07 23:16 | 41.53027 | -100.25795 | 33854 ft | 420 kts | 258° |
| 2026-05-07 23:16 | 41.51414 | -100.33298 | 33860 ft | 421 kts | 258° |
| 2026-05-07 23:17 | 41.49805 | -100.40754 | 33854 ft | 421 kts | 258° |
| 2026-05-07 23:17 | 41.48180 | -100.48263 | 33859 ft | 422 kts | 258° |
| 2026-05-07 23:18 | 41.46546 | -100.55780 | 33852 ft | 422 kts | 258° |
| 2026-05-07 23:18 | 41.44906 | -100.63306 | 33859 ft | 423 kts | 258° |
| 2026-05-07 23:19 | 41.43270 | -100.70785 | 33854 ft | 424 kts | 258° |
| 2026-05-07 23:19 | 41.41616 | -100.78319 | 33864 ft | 424 kts | 258° |
| 2026-05-07 23:20 | 41.39955 | -100.85859 | 33855 ft | 424 kts | 258° |
| 2026-05-07 23:20 | 41.38289 | -100.93405 | 33871 ft | 425 kts | 258° |
| 2026-05-07 23:21 | 41.36584 | -101.00886 | 33857 ft | 427 kts | 255° |
| 2026-05-07 23:21 | 41.34288 | -101.08219 | 33862 ft | 430 kts | 251° |
| 2026-05-07 23:22 | 41.31871 | -101.15503 | 33859 ft | 430 kts | 252° |
| 2026-05-07 23:22 | 41.29492 | -101.22804 | 33867 ft | 430 kts | 252° |
| 2026-05-07 23:23 | 41.27133 | -101.30117 | 33865 ft | 431 kts | 252° |
| 2026-05-07 23:23 | 41.25971 | -101.33716 | 33662 ft | 424 kts | 253° |
| 2026-05-07 23:23 | 41.24822 | -101.37262 | 33760 ft | 413 kts | 253° |
| 2026-05-07 23:24 | 41.22572 | -101.44211 | 33860 ft | 408 kts | 254° |
| 2026-05-07 23:24 | 41.20342 | -101.51158 | 33881 ft | 410 kts | 254° |
| 2026-05-07 23:25 | 41.18101 | -101.58147 | 33899 ft | 412 kts | 254° |
| 2026-05-07 23:25 | 41.15857 | -101.65123 | 33897 ft | 415 kts | 254° |
| 2026-05-07 23:26 | 41.13579 | -101.72180 | 33899 ft | 417 kts | 254° |
| 2026-05-07 23:26 | 41.11288 | -101.79256 | 33897 ft | 418 kts | 254° |
| 2026-05-07 23:27 | 41.07843 | -101.89863 | 33893 ft | 418 kts | 254° |
| 2026-05-07 23:27 | 41.05557 | -101.96879 | 33891 ft | 417 kts | 254° |
| 2026-05-07 23:28 | 41.03258 | -102.03920 | 33886 ft | 416 kts | 254° |
| 2026-05-07 23:28 | 41.00962 | -102.10934 | 33885 ft | 415 kts | 254° |
| 2026-05-07 23:29 | 40.98668 | -102.17929 | 33872 ft | 413 kts | 254° |
| 2026-05-07 23:29 | 40.96390 | -102.24849 | 33876 ft | 412 kts | 254° |
| 2026-05-07 23:30 | 40.94099 | -102.31791 | 33863 ft | 411 kts | 254° |
| 2026-05-07 23:30 | 40.91808 | -102.38718 | 33857 ft | 411 kts | 254° |
| 2026-05-07 23:31 | 40.89518 | -102.45626 | 33858 ft | 410 kts | 254° |
| 2026-05-07 23:31 | 40.87245 | -102.52472 | 33858 ft | 409 kts | 254° |
| 2026-05-07 23:32 | 40.84954 | -102.59352 | 33860 ft | 409 kts | 254° |
| 2026-05-07 23:32 | 40.82656 | -102.66238 | 33858 ft | 410 kts | 254° |
| 2026-05-07 23:33 | 40.80352 | -102.73123 | 33860 ft | 410 kts | 254° |
| 2026-05-07 23:33 | 40.78035 | -102.80042 | 33332 ft | 419 kts | 254° |
| 2026-05-07 23:34 | 40.76855 | -102.83558 | 32697 ft | 419 kts | 253° |
| 2026-05-07 23:34 | 40.75690 | -102.87015 | 31989 ft | 418 kts | 253° |
| 2026-05-07 23:34 | 40.74510 | -102.90504 | 31522 ft | 412 kts | 253° |
| 2026-05-07 23:34 | 40.73348 | -102.93924 | 31074 ft | 406 kts | 253° |
| 2026-05-07 23:35 | 40.72206 | -102.97289 | 30658 ft | 399 kts | 253° |
| 2026-05-07 23:35 | 40.71079 | -103.00610 | 30244 ft | 395 kts | 253° |
| 2026-05-07 23:35 | 40.69964 | -103.03903 | 29814 ft | 393 kts | 253° |
| 2026-05-07 23:35 | 40.68848 | -103.07199 | 29350 ft | 394 kts | 253° |
| 2026-05-07 23:36 | 40.67727 | -103.10505 | 28938 ft | 396 kts | 252° |
| 2026-05-07 23:36 | 40.66619 | -103.13764 | 28505 ft | 394 kts | 252° |
| 2026-05-07 23:36 | 40.65502 | -103.17040 | 28090 ft | 390 kts | 252° |
| 2026-05-07 23:36 | 40.64395 | -103.20281 | 27683 ft | 387 kts | 252° |
| 2026-05-07 23:37 | 40.63294 | -103.23505 | 27261 ft | 385 kts | 252° |
| 2026-05-07 23:37 | 40.62199 | -103.26707 | 26850 ft | 383 kts | 251° |
| 2026-05-07 23:37 | 40.61110 | -103.29890 | 26453 ft | 381 kts | 251° |
| 2026-05-07 23:37 | 40.60026 | -103.33058 | 26055 ft | 379 kts | 251° |
| 2026-05-07 23:38 | 40.58945 | -103.36216 | 25663 ft | 378 kts | 251° |
| 2026-05-07 23:38 | 40.57883 | -103.39315 | 25260 ft | 376 kts | 251° |
| 2026-05-07 23:38 | 40.56809 | -103.42446 | 24859 ft | 375 kts | 250° |
| 2026-05-07 23:38 | 40.55734 | -103.45573 | 24456 ft | 374 kts | 250° |
| 2026-05-07 23:39 | 40.54665 | -103.48679 | 24070 ft | 373 kts | 250° |
| 2026-05-07 23:39 | 40.53596 | -103.51785 | 23659 ft | 372 kts | 250° |
| 2026-05-07 23:39 | 40.52532 | -103.54877 | 23224 ft | 371 kts | 250° |
| 2026-05-07 23:39 | 40.51471 | -103.57957 | 22773 ft | 369 kts | 250° |
| 2026-05-07 23:40 | 40.50416 | -103.61016 | 22369 ft | 366 kts | 250° |
| 2026-05-07 23:40 | 40.49367 | -103.64057 | 21970 ft | 364 kts | 250° |
| 2026-05-07 23:40 | 40.48342 | -103.67025 | 21596 ft | 361 kts | 250° |
| 2026-05-07 23:40 | 40.47307 | -103.70021 | 21221 ft | 359 kts | 249° |
| 2026-05-07 23:41 | 40.46278 | -103.72993 | 20847 ft | 357 kts | 249° |
| 2026-05-07 23:41 | 40.45243 | -103.75946 | 20470 ft | 356 kts | 248° |
| 2026-05-07 23:41 | 40.44051 | -103.78799 | 20112 ft | 358 kts | 244° |
| 2026-05-07 23:41 | 40.42752 | -103.81598 | 19738 ft | 360 kts | 242° |
| 2026-05-07 23:42 | 40.41430 | -103.84385 | 19355 ft | 359 kts | 242° |
| 2026-05-07 23:42 | 40.40120 | -103.87158 | 18974 ft | 357 kts | 243° |
| 2026-05-07 23:42 | 40.38842 | -103.89893 | 18601 ft | 356 kts | 243° |
| 2026-05-07 23:42 | 40.37559 | -103.92662 | 18224 ft | 354 kts | 243° |
| 2026-05-07 23:43 | 40.36287 | -103.95419 | 17800 ft | 353 kts | 243° |
| 2026-05-07 23:43 | 40.35022 | -103.98166 | 17401 ft | 350 kts | 243° |
| 2026-05-07 23:43 | 40.33779 | -104.00860 | 16994 ft | 339 kts | 243° |
| 2026-05-07 23:43 | 40.32582 | -104.03449 | 16630 ft | 326 kts | 243° |
| 2026-05-07 23:44 | 40.31385 | -104.05928 | 16278 ft | 318 kts | 237° |
| 2026-05-07 23:44 | 40.29928 | -104.08077 | 15940 ft | 313 kts | 230° |
| 2026-05-07 23:44 | 40.28386 | -104.10025 | 15615 ft | 304 kts | 229° |
| 2026-05-07 23:44 | 40.26885 | -104.11885 | 15305 ft | 297 kts | 229° |
| 2026-05-07 23:45 | 40.25402 | -104.13754 | 15005 ft | 297 kts | 229° |
| 2026-05-07 23:45 | 40.23923 | -104.15659 | 14673 ft | 300 kts | 230° |
| 2026-05-07 23:45 | 40.22433 | -104.17591 | 14363 ft | 302 kts | 229° |
| 2026-05-07 23:45 | 40.20941 | -104.19529 | 14034 ft | 303 kts | 229° |
| 2026-05-07 23:46 | 40.19372 | -104.21375 | 13705 ft | 306 kts | 218° |
| 2026-05-07 23:46 | 40.17462 | -104.22625 | 13379 ft | 308 kts | 206° |
| 2026-05-07 23:46 | 40.15452 | -104.23556 | 13063 ft | 305 kts | 203° |
| 2026-05-07 23:46 | 40.13471 | -104.24409 | 12744 ft | 302 kts | 203° |
| 2026-05-07 23:47 | 40.11479 | -104.25261 | 12445 ft | 300 kts | 203° |
| 2026-05-07 23:47 | 40.09507 | -104.26114 | 12152 ft | 298 kts | 203° |
| 2026-05-07 23:47 | 40.07547 | -104.26971 | 11852 ft | 296 kts | 203° |
| 2026-05-07 23:47 | 40.05601 | -104.27829 | 11563 ft | 293 kts | 203° |
| 2026-05-07 23:48 | 40.03679 | -104.28679 | 11279 ft | 290 kts | 203° |
| 2026-05-07 23:48 | 40.01775 | -104.29524 | 10998 ft | 287 kts | 203° |
| 2026-05-07 23:48 | 39.99895 | -104.30359 | 10724 ft | 283 kts | 203° |
| 2026-05-07 23:48 | 39.98041 | -104.31183 | 10459 ft | 280 kts | 203° |
| 2026-05-07 23:49 | 39.96231 | -104.31988 | 10199 ft | 278 kts | 203° |
| 2026-05-07 23:49 | 39.94417 | -104.32794 | 9959 ft | 272 kts | 202° |
| 2026-05-07 23:49 | 39.92658 | -104.33574 | 9681 ft | 264 kts | 203° |
| 2026-05-07 23:49 | 39.90943 | -104.34333 | 9413 ft | 256 kts | 203° |
| 2026-05-07 23:50 | 39.89304 | -104.35114 | 9135 ft | 246 kts | 213° |
| 2026-05-07 23:50 | 39.88178 | -104.36607 | 8988 ft | 226 kts | 251° |
| 2026-05-07 23:50 | 39.87837 | -104.38575 | 8749 ft | 225 kts | 265° |
| 2026-05-07 23:50 | 39.87656 | -104.40636 | 8452 ft | 232 kts | 267° |
| 2026-05-07 23:51 | 39.87593 | -104.42717 | 8162 ft | 234 kts | 272° |
| 2026-05-07 23:51 | 39.87600 | -104.44820 | 7862 ft | 231 kts | 272° |
| 2026-05-07 23:51 | 39.87628 | -104.46885 | 7669 ft | 225 kts | 267° |
| 2026-05-07 23:51 | 39.87137 | -104.48796 | 7497 ft | 225 kts | 241° |
| 2026-05-07 23:52 | 39.86111 | -104.50362 | 7373 ft | 231 kts | 226° |
| 2026-05-07 23:52 | 39.84780 | -104.51576 | 7418 ft | 238 kts | 210° |
| 2026-05-07 23:52 | 39.83178 | -104.52239 | 7480 ft | 248 kts | 191° |
| 2026-05-07 23:52 | 39.81432 | -104.52472 | 7385 ft | 252 kts | 188° |
| 2026-05-07 23:53 | 39.79702 | -104.52634 | 7355 ft | 247 kts | 188° |
| 2026-05-07 23:53 | 39.78014 | -104.52766 | 7380 ft | 246 kts | 187° |
| 2026-05-07 23:53 | 39.76310 | -104.52982 | 7362 ft | 244 kts | 200° |
| 2026-05-07 23:53 | 39.74894 | -104.54029 | 7360 ft | 231 kts | 232° |
| 2026-05-07 23:54 | 39.74166 | -104.55807 | 7372 ft | 221 kts | 261° |
| 2026-05-07 23:54 | 39.73942 | -104.57765 | 7386 ft | 220 kts | 266° |
| 2026-05-07 23:54 | 39.73793 | -104.59761 | 7384 ft | 224 kts | 267° |
| 2026-05-07 23:54 | 39.73663 | -104.61792 | 7365 ft | 226 kts | 268° |
| 2026-05-07 23:55 | 39.73540 | -104.63820 | 7366 ft | 224 kts | 273° |
| 2026-05-07 23:55 | 39.73957 | -104.65735 | 7262 ft | 222 kts | 303° |
| 2026-05-07 23:55 | 39.75082 | -104.67024 | 7006 ft | 220 kts | 334° |
| 2026-05-07 23:55 | 39.76572 | -104.67364 | 6708 ft | 221 kts | 360° |
| 2026-05-07 23:56 | 39.78073 | -104.66935 | 6420 ft | 222 kts | 13° |
| 2026-05-07 23:56 | 39.79533 | -104.66300 | 6015 ft | 218 kts | 12° |
| 2026-05-07 23:56 | 39.80953 | -104.66014 | 5734 ft | 197 kts | 355° |
| 2026-05-07 23:56 | 39.82267 | -104.66042 | 5537 ft | 181 kts | 353° |
| 2026-05-07 23:57 | 39.83450 | -104.66048 | 5432 ft | 158 kts | 354° |
| 2026-05-07 23:57 | 39.84427 | -104.66036 | 5413 ft | 119 kts | 2° |
| 2026-05-07 23:57 | 39.85123 | -104.66023 | 5393 ft | 77 kts | 1° |
| 2026-05-07 23:57 | 39.85504 | -104.66024 | 5394 ft | 21 kts | 1° |